sensor_id;sensor_type;location;lat;lon;timestamp;pressure;altitude;pressure_sealevel;temperature;humidity
50302;BME280;36550;50.472;19.744;2024-03-23T00:56:34;97441.16;;;9.78;72.01
50302;BME280;36550;50.472;19.744;2024-03-23T00:59:18;97437.59;;;9.76;71.98
50302;BME280;36550;50.472;19.744;2024-03-23T01:02:02;97432.73;;;9.75;72.10
50302;BME280;36550;50.472;19.744;2024-03-23T01:04:47;97428.95;;;9.73;72.17
50302;BME280;36550;50.472;19.744;2024-03-23T01:07:31;97430.64;;;9.72;72.17
50302;BME280;36550;50.472;19.744;2024-03-23T01:10:15;97427.86;;;9.70;72.34
50302;BME280;36550;50.472;19.744;2024-03-23T01:12:59;97429.15;;;9.69;72.51
50302;BME280;36550;50.472;19.744;2024-03-23T01:15:48;97428.57;;;9.68;72.72
50302;BME280;36550;50.472;19.744;2024-03-23T01:18:32;97429.93;;;9.67;72.83
50302;BME280;36550;50.472;19.744;2024-03-23T01:21:16;97425.80;;;9.65;73.00
50302;BME280;36550;50.472;19.744;2024-03-23T01:24:01;97425.01;;;9.64;73.15
50302;BME280;36550;50.472;19.744;2024-03-23T01:26:45;97426.15;;;9.62;73.24
50302;BME280;36550;50.472;19.744;2024-03-23T01:29:30;97420.98;;;9.60;73.33
50302;BME280;36550;50.472;19.744;2024-03-23T01:32:14;97424.68;;;9.59;73.48
50302;BME280;36550;50.472;19.744;2024-03-23T01:34:58;97424.45;;;9.58;73.63
50302;BME280;36550;50.472;19.744;2024-03-23T01:37:42;97423.46;;;9.58;73.76
50302;BME280;36550;50.472;19.744;2024-03-23T01:40:27;97417.41;;;9.57;73.95
50302;BME280;36550;50.472;19.744;2024-03-23T01:43:15;97411.53;;;9.55;74.11
50302;BME280;36550;50.472;19.744;2024-03-23T01:45:59;97415.88;;;9.54;74.10
50302;BME280;36550;50.472;19.744;2024-03-23T01:48:44;97413.66;;;9.54;74.30
50302;BME280;36550;50.472;19.744;2024-03-23T01:51:29;97411.14;;;9.53;74.48
50302;BME280;36550;50.472;19.744;2024-03-23T01:54:14;97409.80;;;9.51;74.56
50302;BME280;36550;50.472;19.744;2024-03-23T01:56:59;97403.30;;;9.48;74.60
50302;BME280;36550;50.472;19.744;2024-03-23T01:59:44;97400.95;;;9.43;74.49
50302;BME280;36550;50.472;19.744;2024-03-23T02:02:27;97396.85;;;9.41;74.52
50302;BME280;36550;50.472;19.744;2024-03-23T02:05:12;97396.29;;;9.39;74.67
50302;BME280;36550;50.472;19.744;2024-03-23T02:07:57;97392.61;;;9.38;74.87
50302;BME280;36550;50.472;19.744;2024-03-23T02:10:41;97389.46;;;9.38;74.91
50302;BME280;36550;50.472;19.744;2024-03-23T02:13:26;97384.73;;;9.37;75.02
50302;BME280;36550;50.472;19.744;2024-03-23T02:16:11;97375.60;;;9.36;75.11
50302;BME280;36550;50.472;19.744;2024-03-23T02:18:55;97373.20;;;9.36;75.17
50302;BME280;36550;50.472;19.744;2024-03-23T02:21:40;97372.98;;;9.36;75.28
50302;BME280;36550;50.472;19.744;2024-03-23T02:24:24;97367.95;;;9.36;75.38
50302;BME280;36550;50.472;19.744;2024-03-23T02:27:08;97364.98;;;9.37;75.43
50302;BME280;36550;50.472;19.744;2024-03-23T02:29:53;97359.80;;;9.37;75.50
50302;BME280;36550;50.472;19.744;2024-03-23T02:32:37;97356.20;;;9.34;75.35
50302;BME280;36550;50.472;19.744;2024-03-23T02:35:21;97356.83;;;9.30;75.45
50302;BME280;36550;50.472;19.744;2024-03-23T02:38:06;97351.52;;;9.27;75.55
50302;BME280;36550;50.472;19.744;2024-03-23T02:40:50;97348.76;;;9.25;75.66
50302;BME280;36550;50.472;19.744;2024-03-23T02:43:34;97344.43;;;9.22;75.81
50302;BME280;36550;50.472;19.744;2024-03-23T02:46:18;97337.92;;;9.21;75.88
50302;BME280;36550;50.472;19.744;2024-03-23T02:49:02;97332.60;;;9.19;75.93
50302;BME280;36550;50.472;19.744;2024-03-23T02:51:47;97327.99;;;9.19;76.13
50302;BME280;36550;50.472;19.744;2024-03-23T02:54:32;97331.02;;;9.18;76.18
50302;BME280;36550;50.472;19.744;2024-03-23T02:57:17;97328.39;;;9.17;76.31
50302;BME280;36550;50.472;19.744;2024-03-23T03:00:01;97330.66;;;9.18;76.52
50302;BME280;36550;50.472;19.744;2024-03-23T03:02:46;97325.32;;;9.18;76.63
50302;BME280;36550;50.472;19.744;2024-03-23T03:05:30;97324.59;;;9.18;76.66
50302;BME280;36550;50.472;19.744;2024-03-23T03:08:14;97320.22;;;9.17;76.68
50302;BME280;36550;50.472;19.744;2024-03-23T03:10:58;97326.23;;;9.17;76.92
50302;BME280;36550;50.472;19.744;2024-03-23T03:13:42;97326.54;;;9.15;77.01
50302;BME280;36550;50.472;19.744;2024-03-23T03:16:26;97320.48;;;9.14;77.00
50302;BME280;36550;50.472;19.744;2024-03-23T03:19:11;97317.91;;;9.12;77.09
50302;BME280;36550;50.472;19.744;2024-03-23T03:21:55;97310.50;;;9.11;77.19
50302;BME280;36550;50.472;19.744;2024-03-23T03:24:39;97306.15;;;9.10;77.33
50302;BME280;36550;50.472;19.744;2024-03-23T03:27:23;97307.81;;;9.09;77.27
50302;BME280;36550;50.472;19.744;2024-03-23T03:30:08;97303.02;;;9.06;77.40
50302;BME280;36550;50.472;19.744;2024-03-23T03:32:53;97305.23;;;9.03;77.36
50302;BME280;36550;50.472;19.744;2024-03-23T03:35:38;97298.28;;;9.00;77.56
50302;BME280;36550;50.472;19.744;2024-03-23T03:38:23;97294.62;;;8.97;77.69
50302;BME280;36550;50.472;19.744;2024-03-23T03:41:07;97296.65;;;8.93;77.75
50302;BME280;36550;50.472;19.744;2024-03-23T03:43:52;97296.23;;;8.88;77.74
50302;BME280;36550;50.472;19.744;2024-03-23T03:46:36;97287.84;;;8.87;77.94
50302;BME280;36550;50.472;19.744;2024-03-23T03:49:20;97281.44;;;8.85;78.23
50302;BME280;36550;50.472;19.744;2024-03-23T03:52:04;97283.23;;;8.81;78.15
50302;BME280;36550;50.472;19.744;2024-03-23T03:54:48;97279.10;;;8.76;78.13
50302;BME280;36550;50.472;19.744;2024-03-23T03:57:33;97275.52;;;8.74;78.36
50302;BME280;36550;50.472;19.744;2024-03-23T04:00:17;97285.31;;;8.74;78.49
50302;BME280;36550;50.472;19.744;2024-03-23T04:03:02;97292.05;;;8.73;78.62
50302;BME280;36550;50.472;19.744;2024-03-23T04:05:53;97292.90;;;8.75;78.89
50302;BME280;36550;50.472;19.744;2024-03-23T04:08:38;97296.33;;;8.76;79.00
50302;BME280;36550;50.472;19.744;2024-03-23T04:11:22;97296.38;;;8.77;79.10
50302;BME280;36550;50.472;19.744;2024-03-23T04:14:06;97298.61;;;8.76;79.06
50302;BME280;36550;50.472;19.744;2024-03-23T04:16:50;97297.35;;;8.75;79.21
50302;BME280;36550;50.472;19.744;2024-03-23T04:19:34;97289.03;;;8.75;79.31
50302;BME280;36550;50.472;19.744;2024-03-23T04:22:18;97286.27;;;8.75;79.40
50302;BME280;36550;50.472;19.744;2024-03-23T04:25:03;97283.17;;;8.76;79.35
50302;BME280;36550;50.472;19.744;2024-03-23T04:27:51;97272.36;;;8.77;79.44
50302;BME280;36550;50.472;19.744;2024-03-23T04:30:35;97264.98;;;8.76;79.52
50302;BME280;36550;50.472;19.744;2024-03-23T04:33:19;97265.93;;;8.73;79.57
50302;BME280;36550;50.472;19.744;2024-03-23T04:36:04;97263.74;;;8.71;79.54
50302;BME280;36550;50.472;19.744;2024-03-23T04:38:48;97263.80;;;8.67;79.61
50302;BME280;36550;50.472;19.744;2024-03-23T04:41:34;97255.27;;;8.66;79.71
50302;BME280;36550;50.472;19.744;2024-03-23T04:44:19;97255.73;;;8.65;79.82
50302;BME280;36550;50.472;19.744;2024-03-23T04:47:03;97256.88;;;8.65;79.76
50302;BME280;36550;50.472;19.744;2024-03-23T04:49:49;97257.55;;;8.65;79.85
50302;BME280;36550;50.472;19.744;2024-03-23T04:52:33;97250.65;;;8.66;79.94
50302;BME280;36550;50.472;19.744;2024-03-23T04:55:17;97247.98;;;8.66;80.00
50302;BME280;36550;50.472;19.744;2024-03-23T04:58:01;97246.86;;;8.68;80.15
50302;BME280;36550;50.472;19.744;2024-03-23T05:00:45;97236.11;;;8.70;80.17
50302;BME280;36550;50.472;19.744;2024-03-23T05:03:29;97234.66;;;8.71;80.28
50302;BME280;36550;50.472;19.744;2024-03-23T05:06:14;97217.92;;;8.71;80.29
50302;BME280;36550;50.472;19.744;2024-03-23T05:08:58;97210.46;;;8.69;80.52
50302;BME280;36550;50.472;19.744;2024-03-23T05:11:43;97218.98;;;8.68;80.58
50302;BME280;36550;50.472;19.744;2024-03-23T05:14:27;97216.32;;;8.68;80.49
50302;BME280;36550;50.472;19.744;2024-03-23T05:17:11;97212.67;;;8.69;80.53
50302;BME280;36550;50.472;19.744;2024-03-23T05:19:55;97213.73;;;8.70;80.53
50302;BME280;36550;50.472;19.744;2024-03-23T05:22:39;97206.17;;;8.72;80.58
50302;BME280;36550;50.472;19.744;2024-03-23T05:25:23;97202.42;;;8.73;80.64
50302;BME280;36550;50.472;19.744;2024-03-23T05:28:07;97202.34;;;8.75;80.63
50302;BME280;36550;50.472;19.744;2024-03-23T05:30:55;97198.64;;;8.76;80.66
50302;BME280;36550;50.472;19.744;2024-03-23T05:33:40;97201.13;;;8.78;80.80
50302;BME280;36550;50.472;19.744;2024-03-23T05:36:25;97203.05;;;8.81;80.79
50302;BME280;36550;50.472;19.744;2024-03-23T05:39:09;97198.31;;;8.84;80.82
50302;BME280;36550;50.472;19.744;2024-03-23T05:41:53;97199.81;;;8.86;80.89
50302;BME280;36550;50.472;19.744;2024-03-23T05:44:37;97194.77;;;8.89;80.89
50302;BME280;36550;50.472;19.744;2024-03-23T05:47:22;97187.50;;;8.89;80.92
50302;BME280;36550;50.472;19.744;2024-03-23T05:50:06;97183.56;;;8.89;80.91
50302;BME280;36550;50.472;19.744;2024-03-23T05:52:50;97182.98;;;8.93;80.99
50302;BME280;36550;50.472;19.744;2024-03-23T05:55:35;97178.03;;;8.95;81.06
50302;BME280;36550;50.472;19.744;2024-03-23T05:58:19;97170.58;;;8.97;81.12
50302;BME280;36550;50.472;19.744;2024-03-23T06:01:07;97169.35;;;8.99;80.94
50302;BME280;36550;50.472;19.744;2024-03-23T06:03:51;97174.09;;;9.02;81.16
50302;BME280;36550;50.472;19.744;2024-03-23T06:06:35;97178.01;;;9.06;81.08
50302;BME280;36550;50.472;19.744;2024-03-23T06:09:19;97181.06;;;9.12;81.17
50302;BME280;36550;50.472;19.744;2024-03-23T06:12:04;97184.15;;;9.17;81.11
50302;BME280;36550;50.472;19.744;2024-03-23T06:14:48;97182.36;;;9.21;81.07
50302;BME280;36550;50.472;19.744;2024-03-23T06:17:33;97180.66;;;9.23;81.02
50302;BME280;36550;50.472;19.744;2024-03-23T06:20:17;97179.19;;;9.27;80.98
50302;BME280;36550;50.472;19.744;2024-03-23T06:23:02;97180.11;;;9.33;81.08
50302;BME280;36550;50.472;19.744;2024-03-23T06:25:47;97177.02;;;9.36;81.01
50302;BME280;36550;50.472;19.744;2024-03-23T06:28:31;97174.15;;;9.38;80.90
50302;BME280;36550;50.472;19.744;2024-03-23T06:31:15;97170.86;;;9.42;80.87
50302;BME280;36550;50.472;19.744;2024-03-23T06:34:00;97168.02;;;9.47;80.95
50302;BME280;36550;50.472;19.744;2024-03-23T06:36:46;97165.27;;;9.50;80.89
50302;BME280;36550;50.472;19.744;2024-03-23T06:39:30;97166.28;;;9.53;80.89
50302;BME280;36550;50.472;19.744;2024-03-23T06:42:14;97162.19;;;9.57;80.90
50302;BME280;36550;50.472;19.744;2024-03-23T06:44:59;97157.43;;;9.64;80.88
50302;BME280;36550;50.472;19.744;2024-03-23T06:47:43;97155.92;;;9.72;80.93
50302;BME280;36550;50.472;19.744;2024-03-23T06:50:27;97153.73;;;9.80;80.82
50302;BME280;36550;50.472;19.744;2024-03-23T06:53:15;97150.18;;;9.89;80.94
50302;BME280;36550;50.472;19.744;2024-03-23T06:56:01;97143.46;;;9.95;80.80
50302;BME280;36550;50.472;19.744;2024-03-23T06:58:45;97114.05;;;10.01;80.81
50302;BME280;36550;50.472;19.744;2024-03-23T07:01:29;97116.33;;;10.06;80.67
50302;BME280;36550;50.472;19.744;2024-03-23T07:04:13;97128.39;;;10.13;80.70
50302;BME280;36550;50.472;19.744;2024-03-23T07:06:58;97116.95;;;10.20;80.69
50302;BME280;36550;50.472;19.744;2024-03-23T07:09:42;97105.33;;;10.25;80.62
50302;BME280;36550;50.472;19.744;2024-03-23T07:12:26;97127.15;;;10.29;80.60
50302;BME280;36550;50.472;19.744;2024-03-23T07:15:10;97120.55;;;10.32;80.54
50302;BME280;36550;50.472;19.744;2024-03-23T07:17:55;97116.14;;;10.39;80.63
50302;BME280;36550;50.472;19.744;2024-03-23T07:20:39;97115.46;;;10.50;80.67
50302;BME280;36550;50.472;19.744;2024-03-23T07:23:24;97114.39;;;10.63;80.50
50302;BME280;36550;50.472;19.744;2024-03-23T07:26:08;97108.73;;;10.78;80.45
50302;BME280;36550;50.472;19.744;2024-03-23T07:28:52;97107.94;;;10.91;80.24
50302;BME280;36550;50.472;19.744;2024-03-23T07:31:37;97102.67;;;11.03;79.90
50302;BME280;36550;50.472;19.744;2024-03-23T07:34:22;97099.21;;;11.13;79.63
50302;BME280;36550;50.472;19.744;2024-03-23T07:37:07;97099.40;;;11.25;79.29
50302;BME280;36550;50.472;19.744;2024-03-23T07:39:51;97099.94;;;11.42;79.34
50302;BME280;36550;50.472;19.744;2024-03-23T07:42:36;97094.53;;;11.67;79.40
50302;BME280;36550;50.472;19.744;2024-03-23T07:45:20;97090.11;;;11.98;79.19
50302;BME280;36550;50.472;19.744;2024-03-23T07:48:04;97087.27;;;12.27;79.08
50302;BME280;36550;50.472;19.744;2024-03-23T07:53:51;97084.30;;;12.71;78.00
50302;BME280;36550;50.472;19.744;2024-03-23T07:56:36;97085.41;;;12.82;77.73
50302;BME280;36550;50.472;19.744;2024-03-23T07:59:20;97082.00;;;12.93;77.49
50302;BME280;36550;50.472;19.744;2024-03-23T08:02:04;97078.45;;;13.05;77.06
50302;BME280;36550;50.472;19.744;2024-03-23T08:04:48;97073.54;;;13.16;76.69
50302;BME280;36550;50.472;19.744;2024-03-23T08:07:32;97069.13;;;13.32;76.85
50302;BME280;36550;50.472;19.744;2024-03-23T08:10:17;97060.57;;;13.48;76.49
50302;BME280;36550;50.472;19.744;2024-03-23T08:13:02;97056.26;;;13.65;76.59
50302;BME280;36550;50.472;19.744;2024-03-23T08:15:45;97053.63;;;13.83;76.16
50302;BME280;36550;50.472;19.744;2024-03-23T08:18:30;97046.51;;;13.98;75.92
50302;BME280;36550;50.472;19.744;2024-03-23T08:21:14;97038.95;;;14.15;75.75
50302;BME280;36550;50.472;19.744;2024-03-23T08:23:58;97034.73;;;14.34;75.58
50302;BME280;36550;50.472;19.744;2024-03-23T08:26:43;97031.97;;;14.51;75.17
50302;BME280;36550;50.472;19.744;2024-03-23T08:29:27;97024.58;;;14.70;74.61
50302;BME280;36550;50.472;19.744;2024-03-23T08:32:11;97018.02;;;14.89;74.55
50302;BME280;36550;50.472;19.744;2024-03-23T08:34:56;97015.19;;;15.10;74.12
50302;BME280;36550;50.472;19.744;2024-03-23T08:37:40;97013.08;;;15.32;73.86
50302;BME280;36550;50.472;19.744;2024-03-23T08:40:24;97007.02;;;15.54;74.01
50302;BME280;36550;50.472;19.744;2024-03-23T08:43:08;96995.74;;;15.74;73.25
50302;BME280;36550;50.472;19.744;2024-03-23T08:45:53;96985.91;;;15.83;71.71
50302;BME280;36550;50.472;19.744;2024-03-23T08:48:44;96975.93;;;15.90;71.35
50302;BME280;36550;50.472;19.744;2024-03-23T08:51:29;96976.30;;;15.95;70.67
50302;BME280;36550;50.472;19.744;2024-03-23T08:54:14;96969.46;;;15.99;70.69
50302;BME280;36550;50.472;19.744;2024-03-23T08:56:59;96962.81;;;16.09;70.62
50302;BME280;36550;50.472;19.744;2024-03-23T08:59:43;96954.00;;;16.15;69.26
50302;BME280;36550;50.472;19.744;2024-03-23T09:02:28;96955.30;;;16.11;67.63
50302;BME280;36550;50.472;19.744;2024-03-23T09:05:12;96956.65;;;16.04;67.41
50302;BME280;36550;50.472;19.744;2024-03-23T09:07:57;96952.21;;;16.02;67.47
50302;BME280;36550;50.472;19.744;2024-03-23T09:10:42;96941.94;;;16.02;67.53
50302;BME280;36550;50.472;19.744;2024-03-23T09:13:27;96941.52;;;16.01;66.97
50302;BME280;36550;50.472;19.744;2024-03-23T09:16:11;96939.30;;;15.96;66.68
50302;BME280;36550;50.472;19.744;2024-03-23T09:18:55;96932.91;;;15.97;66.53
50302;BME280;36550;50.472;19.744;2024-03-23T09:21:39;96926.88;;;15.93;64.84
50302;BME280;36550;50.472;19.744;2024-03-23T09:24:24;96919.85;;;15.85;63.98
50302;BME280;36550;50.472;19.744;2024-03-23T09:27:08;96911.11;;;15.73;63.06
50302;BME280;36550;50.472;19.744;2024-03-23T09:29:52;96906.83;;;15.55;62.70
50302;BME280;36550;50.472;19.744;2024-03-23T09:32:36;96903.25;;;15.40;62.22
50302;BME280;36550;50.472;19.744;2024-03-23T09:35:21;96898.39;;;15.22;62.37
50302;BME280;36550;50.472;19.744;2024-03-23T09:38:05;96890.30;;;15.10;62.96
50302;BME280;36550;50.472;19.744;2024-03-23T09:40:52;96888.09;;;15.04;62.80
50302;BME280;36550;50.472;19.744;2024-03-23T09:43:37;96878.38;;;14.99;63.09
50302;BME280;36550;50.472;19.744;2024-03-23T09:46:21;96878.77;;;15.00;63.30
50302;BME280;36550;50.472;19.744;2024-03-23T09:49:09;96869.84;;;15.01;63.52
50302;BME280;36550;50.472;19.744;2024-03-23T09:51:54;96865.19;;;15.02;63.20
50302;BME280;36550;50.472;19.744;2024-03-23T09:54:39;96859.63;;;15.01;63.31
50302;BME280;36550;50.472;19.744;2024-03-23T09:57:24;96855.19;;;15.03;63.31
50302;BME280;36550;50.472;19.744;2024-03-23T10:00:09;96844.23;;;15.07;63.70
50302;BME280;36550;50.472;19.744;2024-03-23T10:02:57;96837.51;;;15.13;63.04
50302;BME280;36550;50.472;19.744;2024-03-23T10:06:00;96827.43;;;15.17;61.61
50302;BME280;36550;50.472;19.744;2024-03-23T10:08:44;96822.48;;;15.19;61.89
50302;BME280;36550;50.472;19.744;2024-03-23T10:11:28;96819.86;;;15.20;61.35
50302;BME280;36550;50.472;19.744;2024-03-23T10:14:28;96809.04;;;15.23;60.85
50302;BME280;36550;50.472;19.744;2024-03-23T10:20:09;96808.33;;;15.27;61.28
50302;BME280;36550;50.472;19.744;2024-03-23T10:22:54;96805.89;;;15.30;60.15
50302;BME280;36550;50.472;19.744;2024-03-23T10:25:40;96802.75;;;15.34;60.55
50302;BME280;36550;50.472;19.744;2024-03-23T10:28:24;96795.41;;;15.36;60.68
50302;BME280;36550;50.472;19.744;2024-03-23T10:31:11;96786.02;;;15.40;60.27
50302;BME280;36550;50.472;19.744;2024-03-23T10:33:55;96779.13;;;15.44;60.35
50302;BME280;36550;50.472;19.744;2024-03-23T10:36:41;96766.13;;;15.48;60.64
50302;BME280;36550;50.472;19.744;2024-03-23T10:39:25;96767.01;;;15.55;59.98
50302;BME280;36550;50.472;19.744;2024-03-23T10:42:10;96761.27;;;15.60;58.88
50302;BME280;36550;50.472;19.744;2024-03-23T10:44:54;96758.71;;;15.67;58.13
50302;BME280;36550;50.472;19.744;2024-03-23T10:47:40;96760.14;;;15.73;58.35
50302;BME280;36550;50.472;19.744;2024-03-23T10:50:24;96757.00;;;15.76;58.03
50302;BME280;36550;50.472;19.744;2024-03-23T10:53:08;96755.52;;;15.77;58.15
50302;BME280;36550;50.472;19.744;2024-03-23T10:55:55;96744.52;;;15.76;57.77
50302;BME280;36550;50.472;19.744;2024-03-23T10:58:43;96741.71;;;15.79;57.89
50302;BME280;36550;50.472;19.744;2024-03-23T11:01:27;96732.71;;;15.84;58.39
50302;BME280;36550;50.472;19.744;2024-03-23T11:04:29;96717.97;;;15.89;57.71
50302;BME280;36550;50.472;19.744;2024-03-23T11:13:23;96701.86;;;16.04;57.59
50302;BME280;36550;50.472;19.744;2024-03-23T11:16:22;96694.84;;;16.12;57.23
50302;BME280;36550;50.472;19.744;2024-03-23T11:19:36;96681.96;;;16.19;56.40
50302;BME280;36550;50.472;19.744;2024-03-23T11:25:26;96674.45;;;16.25;54.87
50302;BME280;36550;50.472;19.744;2024-03-23T11:28:11;96669.34;;;16.26;54.69
50302;BME280;36550;50.472;19.744;2024-03-23T11:30:56;96664.41;;;16.27;54.15
50302;BME280;36550;50.472;19.744;2024-03-23T11:33:40;96661.42;;;16.28;54.09
50302;BME280;36550;50.472;19.744;2024-03-23T11:36:24;96650.10;;;16.30;54.70
50302;BME280;36550;50.472;19.744;2024-03-23T11:39:18;96640.83;;;16.33;55.10
50302;BME280;36550;50.472;19.744;2024-03-23T11:42:04;96640.63;;;16.38;54.30
50302;BME280;36550;50.472;19.744;2024-03-23T11:44:48;96633.63;;;16.40;54.05
50302;BME280;36550;50.472;19.744;2024-03-23T11:47:32;96620.40;;;16.43;54.03
50302;BME280;36550;50.472;19.744;2024-03-23T11:50:20;96609.05;;;16.46;53.56
50302;BME280;36550;50.472;19.744;2024-03-23T11:53:18;96595.86;;;16.44;53.40
50302;BME280;36550;50.472;19.744;2024-03-23T11:56:02;96578.77;;;16.43;54.02
50302;BME280;36550;50.472;19.744;2024-03-23T11:58:48;96563.36;;;16.45;53.51
50302;BME280;36550;50.472;19.744;2024-03-23T12:01:34;96561.47;;;16.48;53.65
50302;BME280;36550;50.472;19.744;2024-03-23T12:04:28;96554.08;;;16.50;52.77
50302;BME280;36550;50.472;19.744;2024-03-23T12:10:04;96538.27;;;16.52;52.12
50302;BME280;36550;50.472;19.744;2024-03-23T12:13:01;96531.89;;;16.55;51.70
50302;BME280;36550;50.472;19.744;2024-03-23T12:15:47;96526.64;;;16.60;51.31
50302;BME280;36550;50.472;19.744;2024-03-23T12:18:32;96524.83;;;16.61;50.50
50302;BME280;36550;50.472;19.744;2024-03-23T12:21:16;96515.83;;;16.65;50.57
50302;BME280;36550;50.472;19.744;2024-03-23T12:24:01;96510.43;;;16.69;50.87
50302;BME280;36550;50.472;19.744;2024-03-23T12:26:45;96502.77;;;16.78;51.15
50302;BME280;36550;50.472;19.744;2024-03-23T12:29:34;96495.11;;;16.84;49.97
50302;BME280;36550;50.472;19.744;2024-03-23T12:32:18;96492.06;;;16.78;49.17
50302;BME280;36550;50.472;19.744;2024-03-23T12:35:03;96487.47;;;16.74;48.96
50302;BME280;36550;50.472;19.744;2024-03-23T12:37:47;96479.75;;;16.74;50.11
50302;BME280;36550;50.472;19.744;2024-03-23T12:40:31;96471.86;;;16.77;49.42
50302;BME280;36550;50.472;19.744;2024-03-23T12:43:16;96466.34;;;16.81;49.42
50302;BME280;36550;50.472;19.744;2024-03-23T12:46:01;96464.19;;;16.82;48.47
50302;BME280;36550;50.472;19.744;2024-03-23T12:48:45;96461.76;;;16.84;47.98
50302;BME280;36550;50.472;19.744;2024-03-23T12:51:30;96451.05;;;16.89;48.79
50302;BME280;36550;50.472;19.744;2024-03-23T12:54:14;96443.50;;;16.97;48.40
50302;BME280;36550;50.472;19.744;2024-03-23T12:56:59;96429.77;;;17.05;47.51
50302;BME280;36550;50.472;19.744;2024-03-23T12:59:43;96429.65;;;17.06;48.13
50302;BME280;36550;50.472;19.744;2024-03-23T13:02:27;96426.98;;;17.14;48.52
50302;BME280;36550;50.472;19.744;2024-03-23T13:05:12;96422.50;;;17.31;46.86
50302;BME280;36550;50.472;19.744;2024-03-23T13:07:56;96417.14;;;17.42;45.93
50302;BME280;36550;50.472;19.744;2024-03-23T13:10:40;96412.54;;;17.45;46.03
50302;BME280;36550;50.472;19.744;2024-03-23T13:13:24;96401.41;;;17.43;46.23
50302;BME280;36550;50.472;19.744;2024-03-23T13:16:09;96393.64;;;17.42;46.11
50302;BME280;36550;50.472;19.744;2024-03-23T13:18:53;96384.48;;;17.44;45.53
50302;BME280;36550;50.472;19.744;2024-03-23T13:21:37;96372.59;;;17.44;45.78
50302;BME280;36550;50.472;19.744;2024-03-23T13:24:23;96366.82;;;17.44;45.12
50302;BME280;36550;50.472;19.744;2024-03-23T13:27:08;96360.99;;;17.45;45.39
50302;BME280;36550;50.472;19.744;2024-03-23T13:29:53;96358.77;;;17.48;45.24
50302;BME280;36550;50.472;19.744;2024-03-23T13:32:37;96348.69;;;17.49;45.26
50302;BME280;36550;50.472;19.744;2024-03-23T13:35:22;96341.55;;;17.51;45.16
50302;BME280;36550;50.472;19.744;2024-03-23T13:38:06;96335.44;;;17.49;44.76
50302;BME280;36550;50.472;19.744;2024-03-23T13:43:34;96332.52;;;17.57;45.39
50302;BME280;36550;50.472;19.744;2024-03-23T13:46:19;96336.65;;;17.66;45.43
50302;BME280;36550;50.472;19.744;2024-03-23T13:49:04;96335.85;;;17.81;44.79
50302;BME280;36550;50.472;19.744;2024-03-23T13:51:48;96332.42;;;17.96;44.28
50302;BME280;36550;50.472;19.744;2024-03-23T13:54:31;96336.98;;;18.05;43.53
50302;BME280;36550;50.472;19.744;2024-03-23T13:57:16;96330.09;;;18.05;43.50
50302;BME280;36550;50.472;19.744;2024-03-23T14:00:01;96332.45;;;18.03;43.58
50302;BME280;36550;50.472;19.744;2024-03-23T14:02:45;96333.05;;;17.97;44.14
50302;BME280;36550;50.472;19.744;2024-03-23T14:05:29;96332.80;;;17.86;43.92
50302;BME280;36550;50.472;19.744;2024-03-23T14:08:14;96340.52;;;17.70;44.76
50302;BME280;36550;50.472;19.744;2024-03-23T14:10:58;96348.00;;;17.54;44.78
50302;BME280;36550;50.472;19.744;2024-03-23T14:13:42;96368.86;;;17.38;45.05
50302;BME280;36550;50.472;19.744;2024-03-23T14:16:26;96381.26;;;17.26;45.17
50302;BME280;36550;50.472;19.744;2024-03-23T14:19:10;96443.39;;;17.17;46.30
50302;BME280;36550;50.472;19.744;2024-03-23T14:21:54;96516.08;;;16.92;50.44
50302;BME280;36550;50.472;19.744;2024-03-23T14:24:38;96526.46;;;16.14;58.39
50302;BME280;36550;50.472;19.744;2024-03-23T14:27:23;96539.93;;;15.28;59.98
50302;BME280;36550;50.472;19.744;2024-03-23T14:30:07;96548.48;;;14.71;62.18
50302;BME280;36550;50.472;19.744;2024-03-23T14:32:52;96563.64;;;14.22;64.80
50302;BME280;36550;50.472;19.744;2024-03-23T14:35:37;96575.58;;;13.83;66.35
50302;BME280;36550;50.472;19.744;2024-03-23T14:38:21;96581.04;;;13.56;66.48
50302;BME280;36550;50.472;19.744;2024-03-23T14:41:06;96587.86;;;13.44;67.62
50302;BME280;36550;50.472;19.744;2024-03-23T14:43:50;96597.54;;;13.26;68.52
50302;BME280;36550;50.472;19.744;2024-03-23T14:46:37;96620.97;;;13.04;68.90
50302;BME280;36550;50.472;19.744;2024-03-23T14:49:21;96627.71;;;12.91;70.06
50302;BME280;36550;50.472;19.744;2024-03-23T14:52:05;96643.46;;;12.69;71.31
50302;BME280;36550;50.472;19.744;2024-03-23T14:54:51;96647.24;;;12.46;72.01
50302;BME280;36550;50.472;19.744;2024-03-23T14:57:35;96654.41;;;12.24;72.82
50302;BME280;36550;50.472;19.744;2024-03-23T15:00:19;96656.63;;;12.06;72.73
50302;BME280;36550;50.472;19.744;2024-03-23T15:03:03;96657.67;;;11.95;74.20
50302;BME280;36550;50.472;19.744;2024-03-23T15:05:55;96662.31;;;11.84;73.85
50302;BME280;36550;50.472;19.744;2024-03-23T15:08:39;96655.48;;;11.76;73.85
50302;BME280;36550;50.472;19.744;2024-03-23T15:11:24;96644.49;;;11.70;72.93
50302;BME280;36550;50.472;19.744;2024-03-23T15:14:08;96629.06;;;11.72;73.02
50302;BME280;36550;50.472;19.744;2024-03-23T15:16:53;96607.35;;;11.74;73.09
50302;BME280;36550;50.472;19.744;2024-03-23T15:19:37;96600.77;;;11.82;72.33
50302;BME280;36550;50.472;19.744;2024-03-23T15:22:22;96599.80;;;11.93;72.24
50302;BME280;36550;50.472;19.744;2024-03-23T15:25:07;96617.63;;;12.04;72.22
50302;BME280;36550;50.472;19.744;2024-03-23T15:27:51;96628.30;;;12.10;72.31
50302;BME280;36550;50.472;19.744;2024-03-23T15:30:35;96626.89;;;12.09;72.20
50302;BME280;36550;50.472;19.744;2024-03-23T15:33:19;96617.78;;;12.10;72.02
50302;BME280;36550;50.472;19.744;2024-03-23T15:36:05;96599.80;;;12.10;71.90
50302;BME280;36550;50.472;19.744;2024-03-23T15:38:49;96583.89;;;12.12;71.99
50302;BME280;36550;50.472;19.744;2024-03-23T15:41:34;96582.29;;;12.13;71.93
50302;BME280;36550;50.472;19.744;2024-03-23T15:44:19;96589.52;;;12.15;71.84